Time;durP1;ratioP1;P1;durP2;ratioP2;P2;SDS_P1;SDS_P2;PMS_P1;PMS_P2;Temp;Humidity;BMP_temperature;BMP_pressure;BME280_temperature;BME280_humidity;BME280_pressure;Samples;Min_cycle;Max_cycle;Signal;HPM_P1;HPM_P2
2023/08/07 00:00:12;;;;;;;3.92;1.90;;;14.20;99.90;;;;;;5053042;28;20021;-55
2023/08/07 00:02:38;;;;;;;7.75;1.25;;;14.30;99.90;;;;;;5053199;28;20420;-54
2023/08/07 00:05:05;;;;;;;7.22;1.90;;;14.30;99.90;;;;;;5052497;28;20075;-55
2023/08/07 00:07:30;;;;;;;6.25;1.73;;;14.30;99.90;;;;;;5051748;28;20028;-54
2023/08/07 00:09:56;;;;;;;13.52;1.75;;;14.30;99.90;;;;;;5052750;28;20397;-54
2023/08/07 00:12:21;;;;;;;6.03;1.20;;;14.40;99.90;;;;;;5052261;28;20083;-53
2023/08/07 00:14:50;;;;;;;14.43;1.75;;;14.40;99.90;;;;;;5052632;28;20094;-55
2023/08/07 00:17:16;;;;;;;15.55;1.60;;;14.40;99.90;;;;;;5053442;28;20021;-55
2023/08/07 00:19:42;;;;;;;13.52;1.95;;;14.40;99.90;;;;;;5051323;28;20025;-54
2023/08/07 00:22:07;;;;;;;7.80;1.65;;;14.30;99.90;;;;;;5049940;28;20528;-54
2023/08/07 00:24:33;;;;;;;4.85;1.38;;;14.30;99.90;;;;;;5052593;28;20111;-55
2023/08/07 00:26:59;;;;;;;8.43;1.48;;;14.30;99.90;;;;;;5052672;28;20025;-57
2023/08/07 00:29:24;;;;;;;11.98;2.05;;;14.40;99.90;;;;;;5052465;28;20029;-56
2023/08/07 00:31:50;;;;;;;3.10;1.27;;;14.40;99.90;;;;;;5052099;28;20074;-54
2023/08/07 00:34:15;;;;;;;7.75;1.67;;;14.40;99.90;;;;;;5051724;28;20477;-54
2023/08/07 00:36:41;;;;;;;7.72;2.75;;;14.40;99.90;;;;;;5051577;28;20431;-53
2023/08/07 00:39:08;;;;;;;7.57;1.83;;;14.50;99.90;;;;;;5050277;28;20021;-55
2023/08/07 00:41:33;;;;;;;3.33;1.02;;;14.50;99.90;;;;;;5051843;28;20443;-53
2023/08/07 00:43:59;;;;;;;7.22;2.17;;;14.50;99.90;;;;;;5052477;28;20033;-55
2023/08/07 00:46:26;;;;;;;7.05;2.05;;;14.60;99.90;;;;;;5052280;28;20401;-55
2023/08/07 00:48:53;;;;;;;4.35;2.33;;;14.50;99.90;;;;;;5051745;28;20099;-46
2023/08/07 00:51:20;;;;;;;4.88;1.00;;;14.50;99.90;;;;;;5052456;28;20029;-43
2023/08/07 00:53:46;;;;;;;3.95;1.45;;;14.40;99.90;;;;;;5051044;28;20539;-45
2023/08/07 00:56:12;;;;;;;8.50;1.38;;;14.20;99.90;;;;;;5052660;28;20047;-42
2023/08/07 00:58:39;;;;;;;4.82;1.27;;;14.20;99.90;;;;;;5051671;28;20096;-42
2023/08/07 01:01:05;;;;;;;6.63;1.38;;;14.20;99.90;;;;;;5052622;28;20078;-44
2023/08/07 01:03:31;;;;;;;6.20;1.23;;;14.20;99.90;;;;;;5051106;28;20573;-43
2023/08/07 01:05:56;;;;;;;8.90;1.20;;;14.10;99.90;;;;;;5054962;28;20052;-46
2023/08/07 01:08:24;;;;;;;5.28;2.15;;;14.20;99.90;;;;;;5054335;28;20025;-43
2023/08/07 01:11:11;;;;;;;6.25;1.85;;;14.20;99.90;;;;;;5056078;28;20078;-67
2023/08/07 01:13:55;;;;;;;17.33;2.20;;;14.20;99.90;;;;;;5055349;28;20041;-45
2023/08/07 01:16:50;;;;;;;2.85;1.08;;;14.30;99.90;;;;;;5054378;28;20129;-45
2023/08/07 01:19:35;;;;;;;5.25;1.50;;;14.30;99.90;;;;;;5055980;28;20025;-53
2023/08/07 01:22:29;;;;;;;12.48;1.73;;;14.40;99.90;;;;;;5055013;28;20040;-54
2023/08/07 01:24:55;;;;;;;7.72;1.20;;;14.40;99.90;;;;;;5021065;28;20037;-54
2023/08/07 01:27:30;;;;;;;14.02;1.75;;;14.50;99.90;;;;;;5055791;28;20539;-53
2023/08/07 01:30:11;;;;;;;6.32;1.58;;;14.50;99.90;;;;;;5054998;28;20028;-55
2023/08/07 01:33:08;;;;;;;4.32;1.45;;;14.40;99.90;;;;;;5055285;28;20108;-54
2023/08/07 01:35:38;;;;;;;9.30;2.60;;;14.40;99.90;;;;;;5055098;28;20035;-54
2023/08/07 01:38:05;;;;;;;11.57;1.55;;;14.40;99.90;;;;;;5026166;28;20029;-54
2023/08/07 01:40:32;;;;;;;2.00;0.63;;;14.30;99.90;;;;;;5037630;28;20021;-55
2023/08/07 01:42:58;;;;;;;3.45;1.38;;;14.10;99.90;;;;;;5055522;28;20036;-54
2023/08/07 01:45:25;;;;;;;4.78;0.82;;;14.10;99.90;;;;;;5055416;28;20033;-54
2023/08/07 01:47:52;;;;;;;6.60;1.10;;;14.00;99.90;;;;;;5054517;28;20036;-53
2023/08/07 01:50:19;;;;;;;7.57;1.50;;;14.00;99.90;;;;;;5053910;28;20381;-55
2023/08/07 01:52:44;;;;;;;3.28;0.90;;;14.00;99.90;;;;;;5052341;28;20039;-55
2023/08/07 01:55:10;;;;;;;4.47;1.00;;;14.00;99.90;;;;;;5055293;28;20095;-54
2023/08/07 01:57:36;;;;;;;9.43;1.55;;;14.00;99.90;;;;;;5054223;28;20017;-54
2023/08/07 02:00:03;;;;;;;3.92;1.00;;;14.00;99.90;;;;;;5055176;28;20067;-56
2023/08/07 02:02:29;;;;;;;3.17;1.02;;;14.10;99.90;;;;;;5055442;28;20496;-52
2023/08/07 02:04:54;;;;;;;6.05;1.35;;;14.20;99.90;;;;;;5055152;28;20096;-52
2023/08/07 02:07:20;;;;;;;5.75;1.00;;;14.20;99.90;;;;;;5053509;28;20122;-53
2023/08/07 02:09:46;;;;;;;6.00;1.48;;;14.20;99.90;;;;;;5054141;28;20036;-52
2023/08/07 02:12:11;;;;;;;7.20;1.33;;;14.30;99.90;;;;;;5054608;28;20516;-53
2023/08/07 02:14:37;;;;;;;4.03;1.67;;;14.30;99.90;;;;;;5054712;28;20045;-54
2023/08/07 02:17:03;;;;;;;13.25;1.02;;;14.40;99.90;;;;;;5054013;28;20029;-52
2023/08/07 02:19:28;;;;;;;7.75;1.42;;;14.40;99.90;;;;;;5054898;28;20021;-56
2023/08/07 02:21:54;;;;;;;11.70;1.67;;;14.30;99.90;;;;;;5052779;28;20036;-54
2023/08/07 02:24:20;;;;;;;9.13;1.75;;;14.30;99.90;;;;;;5054710;28;20037;-52
2023/08/07 02:26:45;;;;;;;13.85;4.22;;;14.30;99.90;;;;;;5053796;28;20525;-57
2023/08/07 02:29:11;;;;;;;12.93;1.65;;;14.30;99.90;;;;;;5054678;28;20033;-53
2023/08/07 02:31:37;;;;;;;6.97;1.65;;;14.30;99.90;;;;;;5054547;28;20466;-54
2023/08/07 02:34:02;;;;;;;6.97;1.27;;;14.30;99.90;;;;;;5037149;28;20602;-53
2023/08/07 02:36:28;;;;;;;8.70;1.58;;;14.40;99.90;;;;;;5053397;28;20025;-49
2023/08/07 02:38:54;;;;;;;6.72;1.50;;;14.40;99.90;;;;;;5053939;28;20056;-54
2023/08/07 02:41:19;;;;;;;3.78;1.38;;;14.40;99.90;;;;;;5035209;28;20041;-56
2023/08/07 02:43:45;;;;;;;11.43;2.00;;;14.40;99.90;;;;;;5053404;28;20025;-55
2023/08/07 02:46:10;;;;;;;10.18;2.22;;;14.40;99.90;;;;;;5054393;28;20025;-56
2023/08/07 02:48:36;;;;;;;9.30;2.63;;;14.50;99.90;;;;;;5054283;28;20029;-55
2023/08/07 02:51:02;;;;;;;2.30;1.10;;;14.50;99.90;;;;;;5036239;28;20025;-55
2023/08/07 02:53:27;;;;;;;9.45;1.88;;;14.50;99.90;;;;;;5052523;28;20032;-53
2023/08/07 02:55:53;;;;;;;14.40;2.05;;;14.50;99.90;;;;;;5054234;28;20033;-42
2023/08/07 02:58:19;;;;;;;6.93;1.95;;;14.50;99.90;;;;;;5054294;28;20032;-40
2023/08/07 03:00:44;;;;;;;3.47;1.08;;;14.50;99.90;;;;;;5053566;28;20055;-41
2023/08/07 03:03:10;;;;;;;21.15;2.55;;;14.50;99.90;;;;;;5053246;28;20116;-42
2023/08/07 03:05:36;;;;;;;3.25;1.15;;;14.50;99.90;;;;;;5053946;28;20547;-41
2023/08/07 03:08:02;;;;;;;7.97;1.65;;;14.60;99.90;;;;;;5052164;28;20386;-45
2023/08/07 03:10:28;;;;;;;9.05;1.77;;;14.60;99.90;;;;;;5053882;28;20028;-46
2023/08/07 03:12:53;;;;;;;8.45;2.67;;;14.50;99.90;;;;;;5052469;28;20492;-41
2023/08/07 03:15:19;;;;;;;10.88;1.13;;;14.50;99.90;;;;;;5053791;28;20044;-63
2023/08/07 03:17:44;;;;;;;9.23;1.63;;;14.40;99.90;;;;;;5053705;28;20500;-42
2023/08/07 03:20:10;;;;;;;12.93;2.10;;;14.30;99.90;;;;;;5051577;28;20510;-42
2023/08/07 03:22:36;;;;;;;6.38;1.52;;;14.20;99.90;;;;;;5051593;28;20035;-41
2023/08/07 03:25:02;;;;;;;6.75;1.55;;;14.10;99.90;;;;;;5035103;28;20330;-47
2023/08/07 03:27:28;;;;;;;13.18;2.63;;;14.00;99.90;;;;;;5052928;28;20537;-42
2023/08/07 03:29:54;;;;;;;7.68;1.30;;;14.00;99.90;;;;;;5053373;28;20040;-44
2023/08/07 03:32:19;;;;;;;7.93;1.50;;;13.90;99.90;;;;;;5053455;28;20429;-53
2023/08/07 03:34:45;;;;;;;8.95;1.80;;;13.80;99.90;;;;;;5053425;28;20025;-55
2023/08/07 03:37:10;;;;;;;7.25;1.48;;;13.80;99.90;;;;;;5052411;28;20025;-54
2023/08/07 03:39:36;;;;;;;3.92;1.40;;;13.80;99.90;;;;;;5034751;28;20477;-53
2023/08/07 03:42:02;;;;;;;3.88;1.25;;;13.80;99.90;;;;;;5053636;28;20529;-54
2023/08/07 03:44:27;;;;;;;7.90;1.52;;;13.80;99.90;;;;;;5053263;28;20025;-53
2023/08/07 03:46:56;;;;;;;7.20;1.55;;;13.90;99.90;;;;;;5052499;28;20119;-54
2023/08/07 03:49:22;;;;;;;8.45;2.15;;;13.80;99.90;;;;;;5053461;28;20021;-54
2023/08/07 03:51:49;;;;;;;13.88;2.42;;;13.80;99.90;;;;;;5052005;28;20036;-54
2023/08/07 03:54:14;;;;;;;10.82;2.33;;;13.80;99.90;;;;;;5052249;28;20100;-54
2023/08/07 03:56:40;;;;;;;11.50;2.22;;;13.90;99.90;;;;;;5052045;28;20109;-56
2023/08/07 03:59:06;;;;;;;11.60;1.48;;;13.90;99.90;;;;;;5053013;28;20025;-54
2023/08/07 04:01:31;;;;;;;15.00;1.85;;;13.90;99.90;;;;;;5053006;28;20035;-55
2023/08/07 04:03:57;;;;;;;10.70;1.85;;;13.80;99.90;;;;;;5052214;28;20054;-54
2023/08/07 04:06:23;;;;;;;9.18;1.70;;;13.80;99.90;;;;;;5051903;28;20033;-63
2023/08/07 04:08:48;;;;;;;14.38;1.95;;;13.80;99.90;;;;;;5051188;28;20465;-71
2023/08/07 04:11:14;;;;;;;7.95;1.73;;;13.80;99.90;;;;;;5052782;28;20116;-55
2023/08/07 04:13:39;;;;;;;15.73;2.17;;;13.80;99.90;;;;;;5051662;28;20482;-55
2023/08/07 04:16:06;;;;;;;9.82;1.65;;;13.80;99.90;;;;;;5051913;28;20029;-52
2023/08/07 04:18:32;;;;;;;7.68;1.58;;;13.70;99.90;;;;;;5052974;28;20059;-55
2023/08/07 04:20:58;;;;;;;17.48;2.67;;;13.70;99.90;;;;;;5051991;28;20050;-55
2023/08/07 04:23:24;;;;;;;8.25;2.03;;;13.80;99.90;;;;;;5050315;28;20024;-55
2023/08/07 04:25:52;;;;;;;18.25;1.88;;;13.80;99.90;;;;;;5051636;28;20523;-55
2023/08/07 04:28:18;;;;;;;7.55;1.40;;;13.80;99.90;;;;;;5033762;28;20035;-54
2023/08/07 04:30:45;;;;;;;7.45;2.35;;;13.70;99.90;;;;;;5051611;28;20473;-55
2023/08/07 04:33:11;;;;;;;11.00;1.80;;;13.80;99.90;;;;;;5052663;28;20073;-54
2023/08/07 04:35:37;;;;;;;6.90;1.50;;;13.80;99.90;;;;;;5051982;28;20161;-54
2023/08/07 04:38:02;;;;;;;10.48;1.85;;;13.80;99.90;;;;;;5052369;28;20080;-55
2023/08/07 04:40:29;;;;;;;12.68;1.63;;;13.80;99.90;;;;;;5054152;28;20021;-54
2023/08/07 04:42:55;;;;;;;9.48;2.90;;;13.90;99.90;;;;;;5037805;28;20036;-55
2023/08/07 04:45:21;;;;;;;6.70;2.10;;;13.90;99.90;;;;;;5055400;28;20370;-46
2023/08/07 04:47:46;;;;;;;8.55;1.73;;;13.90;99.90;;;;;;5056583;28;20040;-49
2023/08/07 04:50:12;;;;;;;7.53;2.30;;;13.90;99.90;;;;;;5055884;28;20533;-41
2023/08/07 04:52:38;;;;;;;6.32;1.85;;;13.90;99.90;;;;;;5055055;28;20035;-45
2023/08/07 04:55:04;;;;;;;14.15;2.15;;;13.90;99.90;;;;;;5055141;28;20057;-42
2023/08/07 04:57:30;;;;;;;8.45;1.85;;;14.00;99.90;;;;;;5038398;28;20040;-41
2023/08/07 04:59:56;;;;;;;8.85;1.83;;;14.00;99.90;;;;;;5056303;28;20401;-42
2023/08/07 05:02:21;;;;;;;18.92;2.33;;;14.00;99.90;;;;;;5055229;28;20036;-41
2023/08/07 05:04:47;;;;;;;8.10;1.75;;;14.10;99.90;;;;;;5056276;28;20397;-43
2023/08/07 05:07:13;;;;;;;5.40;2.55;;;14.10;99.90;;;;;;5054145;28;20130;-42
2023/08/07 05:09:38;;;;;;;10.73;1.88;;;14.10;99.90;;;;;;5054115;28;20025;-43
2023/08/07 05:12:06;;;;;;;12.75;2.33;;;14.10;99.90;;;;;;5056027;28;20116;-44
2023/08/07 05:14:32;;;;;;;11.68;1.80;;;14.10;99.90;;;;;;5054947;28;20513;-41
2023/08/07 05:16:59;;;;;;;7.45;2.28;;;14.20;99.90;;;;;;5056057;28;20059;-41
2023/08/07 05:19:25;;;;;;;9.35;1.60;;;14.20;99.90;;;;;;5056294;28;20071;-41
2023/08/07 05:21:50;;;;;;;12.50;1.50;;;14.20;99.90;;;;;;5054981;28;20052;-41
2023/08/07 05:24:17;;;;;;;13.02;2.13;;;14.20;99.90;;;;;;5054236;28;20070;-42
2023/08/07 05:26:43;;;;;;;11.15;2.22;;;14.20;99.90;;;;;;5055543;28;20048;-42
2023/08/07 05:29:08;;;;;;;10.52;2.33;;;14.30;99.90;;;;;;5055825;28;20494;-44
2023/08/07 05:31:34;;;;;;;9.35;1.83;;;14.30;99.90;;;;;;5037835;28;20040;-44
2023/08/07 05:34:00;;;;;;;18.70;2.70;;;14.40;99.90;;;;;;5052548;28;20029;-45
2023/08/07 05:36:26;;;;;;;6.78;1.60;;;14.40;99.90;;;;;;5054023;28;20080;-42
2023/08/07 05:38:51;;;;;;;7.13;1.55;;;14.40;99.90;;;;;;5053868;28;20028;-44
2023/08/07 05:41:17;;;;;;;10.02;2.08;;;14.40;99.90;;;;;;5054429;28;20481;-45
2023/08/07 05:43:43;;;;;;;11.25;2.58;;;14.40;99.90;;;;;;5054854;28;20543;-47
2023/08/07 05:46:09;;;;;;;5.88;1.30;;;14.50;99.90;;;;;;5055728;28;20024;-44
2023/08/07 05:48:35;;;;;;;7.63;2.00;;;14.50;99.90;;;;;;5053435;28;20025;-45
2023/08/07 05:51:00;;;;;;;10.57;1.80;;;14.50;99.90;;;;;;5050975;28;20033;-42
2023/08/07 05:53:26;;;;;;;7.15;1.60;;;14.60;99.90;;;;;;5054732;28;20025;-46
2023/08/07 05:55:52;;;;;;;8.43;1.73;;;14.60;99.90;;;;;;5054673;28;20021;-45
2023/08/07 05:58:18;;;;;;;6.85;1.80;;;14.70;99.90;;;;;;5054604;28;20060;-46
2023/08/07 06:00:44;;;;;;;7.88;1.92;;;14.70;99.90;;;;;;5055170;28;20028;-61
2023/08/07 06:03:10;;;;;;;11.00;1.77;;;14.80;99.90;;;;;;5054332;28;20028;-53
2023/08/07 06:05:35;;;;;;;4.22;1.88;;;14.80;99.90;;;;;;5054320;28;20021;-43
2023/08/07 06:08:01;;;;;;;10.90;1.88;;;14.80;99.90;;;;;;5054140;28;20345;-44
2023/08/07 06:10:27;;;;;;;11.98;1.75;;;14.80;99.90;;;;;;5053932;28;20025;-43
2023/08/07 06:12:53;;;;;;;12.60;2.08;;;14.70;99.90;;;;;;5036900;28;20528;-42
2023/08/07 06:15:19;;;;;;;19.30;3.35;;;14.70;99.90;;;;;;5053898;28;20588;-54
2023/08/07 06:17:45;;;;;;;9.68;1.83;;;14.70;99.90;;;;;;5052613;28;20108;-55
2023/08/07 06:20:12;;;;;;;5.25;1.98;;;14.70;99.90;;;;;;5054919;28;20025;-54
2023/08/07 06:22:38;;;;;;;11.13;1.83;;;14.80;99.90;;;;;;5050620;28;20517;-52
2023/08/07 06:25:05;;;;;;;4.55;1.30;;;14.90;99.90;;;;;;5051919;28;20113;-56
2023/08/07 06:27:31;;;;;;;8.38;1.80;;;14.90;99.90;;;;;;5052119;28;20029;-42
2023/08/07 06:29:57;;;;;;;6.78;1.70;;;14.90;99.90;;;;;;5054949;28;20033;-42
2023/08/07 06:32:24;;;;;;;8.88;2.17;;;15.00;99.90;;;;;;5054835;28;20037;-41
2023/08/07 06:34:49;;;;;;;3.78;1.20;;;15.10;99.90;;;;;;5054616;28;20048;-40
2023/08/07 06:37:15;;;;;;;12.55;2.08;;;15.30;99.90;;;;;;5054273;28;20033;-43
2023/08/07 06:39:40;;;;;;;11.45;2.65;;;15.50;99.90;;;;;;5050915;28;20032;-43
2023/08/07 06:42:06;;;;;;;5.55;1.60;;;15.50;99.90;;;;;;5052386;28;20486;-43
2023/08/07 06:44:32;;;;;;;7.78;1.58;;;15.50;99.90;;;;;;5052933;28;20028;-44
2023/08/07 06:46:58;;;;;;;7.78;1.35;;;15.70;99.90;;;;;;5054061;28;20493;-43
2023/08/07 06:49:23;;;;;;;12.93;1.85;;;16.00;99.90;;;;;;5052847;28;20124;-41
2023/08/07 06:51:49;;;;;;;11.93;2.42;;;15.90;99.90;;;;;;5052550;28;20473;-40
2023/08/07 06:54:14;;;;;;;15.50;2.47;;;15.70;99.90;;;;;;5052320;28;20485;-42
2023/08/07 06:56:42;;;;;;;8.18;1.88;;;15.60;99.90;;;;;;5054212;28;20029;-42
2023/08/07 06:59:07;;;;;;;8.82;1.83;;;15.60;99.90;;;;;;5054375;28;20051;-39
2023/08/07 07:01:33;;;;;;;6.93;1.65;;;15.50;99.90;;;;;;5045839;28;20029;-42
2023/08/07 07:03:59;;;;;;;5.40;1.50;;;15.40;99.90;;;;;;5051058;28;20056;-42
2023/08/07 07:06:25;;;;;;;8.55;1.83;;;15.40;99.90;;;;;;5053869;28;20058;-46
2023/08/07 07:08:54;;;;;;;9.10;2.10;;;15.40;99.90;;;;;;5053927;28;20052;-40
2023/08/07 07:11:20;;;;;;;10.00;2.38;;;15.30;99.90;;;;;;5054007;28;20029;-44
2023/08/07 07:13:46;;;;;;;12.57;2.08;;;15.30;99.90;;;;;;5052997;28;20041;-43
2023/08/07 07:16:13;;;;;;;9.73;1.67;;;15.30;99.90;;;;;;5053865;28;20024;-42
2023/08/07 07:18:39;;;;;;;7.75;1.80;;;15.30;99.90;;;;;;5053281;28;20385;-42
2023/08/07 07:21:04;;;;;;;13.20;1.77;;;15.20;99.90;;;;;;5048435;28;20100;-41
2023/08/07 07:23:30;;;;;;;6.72;1.75;;;15.10;99.90;;;;;;5035443;28;20124;-44
2023/08/07 07:25:57;;;;;;;7.35;1.80;;;15.10;99.90;;;;;;5059358;28;20028;-42
2023/08/07 07:28:23;;;;;;;11.68;2.38;;;15.10;99.90;;;;;;5054527;28;20044;-42
2023/08/07 07:30:49;;;;;;;11.63;2.13;;;15.40;99.90;;;;;;5053024;28;20150;-41
2023/08/07 07:33:16;;;;;;;16.58;2.70;;;15.40;99.90;;;;;;5053250;28;20390;-41
2023/08/07 07:35:43;;;;;;;12.13;2.63;;;15.60;99.90;;;;;;5052762;28;20551;-42
2023/08/07 07:38:10;;;;;;;2.55;1.50;;;15.60;99.90;;;;;;5051322;28;20029;-41
2023/08/07 07:40:35;;;;;;;8.55;2.08;;;15.60;99.90;;;;;;5052811;28;20032;-42
2023/08/07 07:43:01;;;;;;;8.35;1.67;;;15.70;99.90;;;;;;5053084;28;20029;-42
2023/08/07 07:45:27;;;;;;;5.80;1.85;;;15.70;99.90;;;;;;5053230;28;20083;-40
2023/08/07 07:47:53;;;;;;;9.10;1.98;;;15.80;99.90;;;;;;5052501;28;20559;-41
2023/08/07 07:50:18;;;;;;;6.60;1.88;;;16.00;99.90;;;;;;5053507;28;20040;-53
2023/08/07 07:52:44;;;;;;;10.15;1.60;;;16.10;99.90;;;;;;5052178;28;20070;-53
2023/08/07 07:55:10;;;;;;;7.88;1.38;;;16.20;99.90;;;;;;5053378;28;20025;-55
2023/08/07 07:57:36;;;;;;;8.45;1.92;;;16.20;99.90;;;;;;5053253;28;20429;-54
2023/08/07 08:00:04;;;;;;;4.90;1.58;;;16.50;99.90;;;;;;5049908;28;20021;-51
2023/08/07 08:02:29;;;;;;;5.43;1.30;;;16.70;99.90;;;;;;5051521;28;20103;-53
2023/08/07 08:04:56;;;;;;;11.60;1.60;;;16.90;99.90;;;;;;5052219;28;20087;-54
2023/08/07 08:07:21;;;;;;;14.10;1.25;;;16.80;99.90;;;;;;5052870;28;20028;-55
2023/08/07 08:09:47;;;;;;;9.00;2.08;;;16.90;99.90;;;;;;5051579;28;20020;-56
2023/08/07 08:12:13;;;;;;;7.43;1.55;;;16.90;99.90;;;;;;5052731;28;20048;-53
2023/08/07 08:14:38;;;;;;;3.75;1.13;;;16.90;99.90;;;;;;5018138;28;20383;-55
2023/08/07 08:17:04;;;;;;;5.03;1.38;;;16.80;99.90;;;;;;5045141;28;20434;-46
2023/08/07 08:19:30;;;;;;;3.45;1.13;;;16.80;99.90;;;;;;5048704;28;20541;-54
2023/08/07 08:21:55;;;;;;;4.35;1.10;;;16.80;99.90;;;;;;5051059;28;20021;-53
2023/08/07 08:24:21;;;;;;;9.63;1.75;;;16.70;99.90;;;;;;5051240;28;20029;-54
2023/08/07 08:26:47;;;;;;;9.30;1.52;;;16.60;99.90;;;;;;5050164;28;20031;-54
2023/08/07 08:29:15;;;;;;;9.02;1.92;;;16.50;99.90;;;;;;5052501;28;20108;-55
2023/08/07 08:31:40;;;;;;;6.30;1.75;;;16.70;99.90;;;;;;5054371;28;20033;-54
2023/08/07 08:34:06;;;;;;;6.00;1.38;;;16.60;99.90;;;;;;5052633;28;20151;-53
2023/08/07 08:36:32;;;;;;;4.75;1.50;;;16.80;99.90;;;;;;5052667;28;20045;-56
2023/08/07 08:38:57;;;;;;;3.53;1.25;;;17.10;99.90;;;;;;5052786;28;20037;-55
2023/08/07 08:41:24;;;;;;;6.70;2.00;;;17.30;99.90;;;;;;5051581;28;20031;-54
2023/08/07 08:43:53;;;;;;;6.22;1.40;;;17.20;99.90;;;;;;5052076;28;20482;-55
2023/08/07 08:46:21;;;;;;;4.05;1.42;;;17.10;99.90;;;;;;5052537;28;20382;-55
2023/08/07 08:48:51;;;;;;;8.13;1.33;;;16.90;99.90;;;;;;5052711;28;20029;-55
2023/08/07 08:51:21;;;;;;;10.02;2.17;;;16.60;99.90;;;;;;5052520;28;20366;-56
2023/08/07 08:53:49;;;;;;;6.63;1.30;;;16.60;99.90;;;;;;5034535;28;20036;-56
2023/08/07 08:56:15;;;;;;;9.00;1.85;;;16.50;99.90;;;;;;5051481;28;20013;-56
2023/08/07 08:58:41;;;;;;;11.30;1.30;;;16.30;99.90;;;;;;5049686;28;20013;-54
2023/08/07 09:01:08;;;;;;;4.70;1.90;;;16.20;99.90;;;;;;5031312;28;20425;-49
2023/08/07 09:03:34;;;;;;;6.33;1.27;;;16.20;99.90;;;;;;5048597;28;20029;-54
2023/08/07 09:06:00;;;;;;;6.05;1.48;;;16.20;99.90;;;;;;5051902;28;20041;-55
2023/08/07 09:08:31;;;;;;;11.02;1.85;;;16.10;99.90;;;;;;5052101;28;20032;-52
2023/08/07 09:10:56;;;;;;;6.85;1.25;;;15.90;99.90;;;;;;5052148;28;20021;-54
2023/08/07 09:13:26;;;;;;;11.38;1.20;;;15.80;99.90;;;;;;5051938;28;20033;-54
2023/08/07 09:15:53;;;;;;;5.18;1.50;;;15.70;99.90;;;;;;5052263;28;20037;-54
2023/08/07 09:18:20;;;;;;;7.60;1.70;;;15.80;99.90;;;;;;5051939;28;20032;-56
2023/08/07 09:20:45;;;;;;;9.77;2.70;;;15.80;99.90;;;;;;5052171;28;20048;-56
2023/08/07 09:23:11;;;;;;;5.70;1.33;;;15.70;99.90;;;;;;5052107;28;20037;-55
2023/08/07 09:25:37;;;;;;;6.63;1.52;;;15.70;99.90;;;;;;5053626;28;20032;-55
2023/08/07 09:28:05;;;;;;;7.75;1.50;;;15.70;99.90;;;;;;5055754;28;20029;-54
2023/08/07 09:30:32;;;;;;;8.95;2.33;;;15.70;99.90;;;;;;5036141;28;20528;-52
2023/08/07 09:32:59;;;;;;;10.57;1.42;;;15.80;99.90;;;;;;5035839;28;20201;-54
2023/08/07 09:35:25;;;;;;;12.63;2.08;;;16.00;99.90;;;;;;5055406;28;20094;-53
2023/08/07 09:37:51;;;;;;;6.93;1.40;;;16.20;99.90;;;;;;5055705;28;20025;-52
2023/08/07 09:40:18;;;;;;;6.38;2.63;;;16.60;99.90;;;;;;5055635;28;20533;-56
2023/08/07 09:42:44;;;;;;;3.97;2.00;;;16.80;99.90;;;;;;5055631;28;20033;-49
2023/08/07 09:45:24;;;;;;;12.73;1.92;;;16.90;99.90;;;;;;5055571;28;20512;-55
2023/08/07 09:48:00;;;;;;;9.25;1.40;;;17.00;99.90;;;;;;5055438;28;20028;-47
2023/08/07 09:50:26;;;;;;;8.73;1.73;;;17.00;99.90;;;;;;5055530;28;20413;-69
2023/08/07 09:52:53;;;;;;;4.05;1.00;;;16.90;99.90;;;;;;5055364;28;20029;-56
2023/08/07 09:55:18;;;;;;;9.02;2.25;;;16.80;99.90;;;;;;5055329;28;20028;-61
2023/08/07 09:57:44;;;;;;;7.15;1.70;;;16.70;99.90;;;;;;5055281;28;20378;-51
2023/08/07 10:00:12;;;;;;;6.97;1.80;;;16.60;99.90;;;;;;5055274;28;20465;-54
2023/08/07 10:02:38;;;;;;;6.80;1.35;;;16.40;99.90;;;;;;5055158;28;20112;-53
2023/08/07 10:05:08;;;;;;;4.18;1.55;;;16.40;99.90;;;;;;5055178;28;20021;-55
2023/08/07 10:07:34;;;;;;;5.22;1.00;;;16.40;99.90;;;;;;5055089;28;20071;-52
2023/08/07 10:10:03;;;;;;;6.13;2.00;;;16.30;99.90;;;;;;5055029;28;20108;-55
2023/08/07 10:12:29;;;;;;;4.80;1.50;;;16.30;99.90;;;;;;5054911;28;20039;-55
2023/08/07 10:14:55;;;;;;;8.20;1.30;;;16.30;99.90;;;;;;5054712;28;20078;-55
2023/08/07 10:17:24;;;;;;;11.07;1.60;;;16.30;99.90;;;;;;5054933;28;20398;-44
2023/08/07 10:19:51;;;;;;;6.38;1.58;;;16.40;99.90;;;;;;5036946;28;20056;-45
2023/08/07 10:22:19;;;;;;;5.85;2.03;;;16.60;99.90;;;;;;5054890;28;20021;-43
2023/08/07 10:24:47;;;;;;;8.25;1.85;;;16.70;99.90;;;;;;5054722;28;20033;-47
2023/08/07 10:27:16;;;;;;;9.98;2.35;;;16.80;99.90;;;;;;5054815;28;20029;-42
2023/08/07 10:29:43;;;;;;;3.22;1.17;;;16.90;99.90;;;;;;5054890;28;20043;-40
2023/08/07 10:32:11;;;;;;;16.38;2.28;;;16.90;99.90;;;;;;5054827;28;20378;-42
2023/08/07 10:34:37;;;;;;;6.55;2.35;;;16.90;99.90;;;;;;5054608;28;20028;-42
2023/08/07 10:37:06;;;;;;;4.80;1.23;;;16.90;99.90;;;;;;5054282;28;20025;-42
2023/08/07 10:39:32;;;;;;;5.30;1.35;;;17.00;99.90;;;;;;5054484;28;20067;-44
2023/08/07 10:41:58;;;;;;;10.85;1.85;;;17.00;99.90;;;;;;5054491;28;20033;-42
2023/08/07 10:44:31;;;;;;;5.63;1.67;;;16.90;99.90;;;;;;5054438;28;20535;-41
2023/08/07 10:46:57;;;;;;;5.03;1.05;;;16.80;99.90;;;;;;5054296;28;20028;-44
2023/08/07 10:49:38;;;;;;;7.10;1.43;;;16.70;99.90;;;;;;5054659;28;20028;-40
2023/08/07 10:52:11;;;;;;;5.65;1.10;;;16.70;99.90;;;;;;5054159;28;20029;-68
2023/08/07 10:54:44;;;;;;;7.10;1.23;;;16.70;99.90;;;;;;5054290;28;20032;-49
2023/08/07 10:57:14;;;;;;;3.40;1.25;;;16.70;99.90;;;;;;5054265;28;20035;-54
2023/08/07 11:00:00;;;;;;;3.22;1.20;;;16.80;99.90;;;;;;5054171;28;20025;-54
2023/08/07 11:02:28;;;;;;;7.18;1.15;;;17.00;99.90;;;;;;5054085;28;20032;-59
2023/08/07 11:04:54;;;;;;;;;;;17.10;99.90;;;;;;5054424;28;20039;-54
2023/08/07 11:07:27;;;;;;;3.75;1.63;;;17.00;99.90;;;;;;5054006;28;20357;-56
2023/08/07 11:09:56;;;;;;;4.82;1.00;;;16.90;99.90;;;;;;5054234;28;20444;-55
2023/08/07 11:12:26;;;;;;;4.07;0.95;;;16.80;99.90;;;;;;5054059;28;20047;-39
2023/08/07 11:14:52;;;;;;;7.93;1.65;;;16.90;99.90;;;;;;5053731;28;20041;-38
2023/08/07 11:17:19;;;;;;;5.55;1.33;;;17.00;99.90;;;;;;5053736;28;20028;-40
2023/08/07 11:19:47;;;;;;;6.40;1.85;;;17.30;99.90;;;;;;5053681;28;20413;-42
2023/08/07 11:22:16;;;;;;;5.30;1.55;;;17.40;99.90;;;;;;5053924;28;20032;-55
2023/08/07 11:24:41;;;;;;;3.63;1.23;;;17.50;99.90;;;;;;5053566;28;20025;-41
2023/08/07 11:27:08;;;;;;;5.85;1.67;;;17.30;99.90;;;;;;5053541;28;20028;-40
2023/08/07 11:29:33;;;;;;;5.90;1.23;;;17.30;99.90;;;;;;5053460;28;20033;-41
2023/08/07 11:31:59;;;;;;;5.28;1.40;;;17.20;99.90;;;;;;5053482;28;20029;-42
2023/08/07 11:34:25;;;;;;;9.48;1.77;;;17.00;99.90;;;;;;5053469;28;20024;-40
2023/08/07 11:36:51;;;;;;;7.93;1.50;;;17.00;99.90;;;;;;5053437;28;20020;-40
2023/08/07 11:39:18;;;;;;;5.25;1.38;;;17.20;99.90;;;;;;5053387;28;20024;-44
2023/08/07 11:41:44;;;;;;;9.40;1.38;;;17.60;99.90;;;;;;5053396;28;20021;-44
2023/08/07 11:44:10;;;;;;;5.50;2.67;;;18.00;99.90;;;;;;5053257;28;20029;-42
2023/08/07 11:46:36;;;;;;;3.60;1.10;;;18.50;99.90;;;;;;5053584;28;20021;-43
2023/08/07 11:49:03;;;;;;;3.83;1.40;;;18.50;99.90;;;;;;5052467;28;20513;-45
2023/08/07 11:51:29;;;;;;;4.70;1.13;;;18.40;99.90;;;;;;5053318;28;20025;-52
2023/08/07 11:53:56;;;;;;;3.55;1.10;;;18.40;99.90;;;;;;5053145;28;20022;-51
2023/08/07 11:56:22;;;;;;;2.72;0.88;;;18.30;99.90;;;;;;5053102;28;20021;-54
2023/08/07 11:58:49;;;;;;;3.40;1.05;;;18.50;99.90;;;;;;5053136;28;20082;-51
2023/08/07 12:01:16;;;;;;;8.32;0.95;;;18.30;99.90;;;;;;5053247;28;20021;-55
2023/08/07 12:03:50;;;;;;;4.72;1.13;;;18.20;99.90;;;;;;5052909;28;20029;-55
2023/08/07 12:06:16;;;;;;;6.95;1.60;;;18.10;99.90;;;;;;5053220;28;20017;-56
2023/08/07 12:08:42;;;;;;;9.10;1.20;;;18.10;99.90;;;;;;5052741;28;20101;-56
2023/08/07 12:11:12;;;;;;;2.70;0.70;;;18.40;99.90;;;;;;5053131;28;20021;-56
2023/08/07 12:13:40;;;;;;;6.60;1.20;;;18.20;99.90;;;;;;5052677;28;20397;-55
2023/08/07 12:16:06;;;;;;;2.38;1.05;;;17.90;99.90;;;;;;5053180;28;20035;-56
2023/08/07 12:18:32;;;;;;;1.75;1.17;;;17.70;99.90;;;;;;5053057;28;20022;-54
2023/08/07 12:21:06;;;;;;;7.82;1.38;;;17.80;99.90;;;;;;5053004;28;20024;-56
2023/08/07 12:23:36;;;;;;;4.53;1.25;;;18.20;99.90;;;;;;5052562;28;20017;-55
2023/08/07 12:26:03;;;;;;;4.40;1.20;;;18.20;99.90;;;;;;5052661;28;20389;-55
2023/08/07 12:28:29;;;;;;;3.50;1.00;;;18.00;99.90;;;;;;5052874;28;20017;-57
2023/08/07 12:30:56;;;;;;;7.00;1.60;;;17.90;99.90;;;;;;5052633;28;20542;-52
2023/08/07 12:33:22;;;;;;;9.57;1.00;;;18.20;99.90;;;;;;5052577;28;20075;-56
2023/08/07 12:35:47;;;;;;;1.85;1.00;;;18.20;99.90;;;;;;5052545;28;20467;-56
2023/08/07 12:38:14;;;;;;;13.70;1.63;;;18.00;99.90;;;;;;5052551;28;20049;-55
2023/08/07 12:40:41;;;;;;;3.72;0.90;;;18.10;99.90;;;;;;5052590;28;20021;-67
2023/08/07 12:43:07;;;;;;;3.33;0.88;;;18.30;99.90;;;;;;5052833;28;20027;-52